Time;durP1;ratioP1;P1;durP2;ratioP2;P2;SDS_P1;SDS_P2;PMS_P1;PMS_P2;Temp;Humidity;BMP_temperature;BMP_pressure;BME280_temperature;BME280_humidity;BME280_pressure;Samples;Min_cycle;Max_cycle;Signal;HPM_P1;HPM_P2
2023/01/26 00:02:18;;;;;;;;;;;;;;;9.96;47.18;101488.63;4943926;28;128285;-66
2023/01/26 00:04:43;;;;;;;;;;;;;;;9.94;47.26;101485.38;4950469;28;98511;-66
2023/01/26 00:07:09;;;;;;;;;;;;;;;9.95;47.03;101487.00;4943013;28;126861;-66
2023/01/26 00:09:35;;;;;;;;;;;;;;;9.96;47.24;101479.72;4922468;28;128857;-66
2023/01/26 00:12:01;;;;;;;;;;;;;;;9.95;46.84;101476.22;4924651;28;128488;-66
2023/01/26 00:14:48;;;;;;;;;;;;;;;9.95;46.92;101470.84;4953695;28;115595;-65
2023/01/26 00:17:13;;;;;;;;;;;;;;;9.95;47.09;101454.66;4952650;28;98069;-66
2023/01/26 00:19:39;;;;;;;;;;;;;;;9.95;46.60;101453.84;4955769;28;127658;-65
2023/01/26 00:22:05;;;;;;;;;;;;;;;9.95;47.24;101445.78;4957910;28;116481;-66
2023/01/26 00:24:31;;;;;;;;;;;;;;;9.95;47.13;101445.78;4926385;28;118477;-66
2023/01/26 00:26:57;;;;;;;;;;;;;;;9.94;47.03;101439.56;4952373;28;128574;-66
2023/01/26 00:29:22;;;;;;;;;;;;;;;9.93;47.45;101429.84;4940268;28;130247;-66
2023/01/26 00:31:48;;;;;;;;;;;;;;;9.94;46.77;101434.19;4938955;28;128291;-66
2023/01/26 00:34:14;;;;;;;;;;;;;;;9.93;46.98;101434.41;4955106;28;117735;-66
2023/01/26 00:36:40;;;;;;;;;;;;;;;9.93;47.10;101443.31;4944236;28;128625;-66
2023/01/26 00:39:06;;;;;;;;;;;;;;;9.91;46.68;101429.28;4952864;28;129534;-66
2023/01/26 00:44:16;;;;;;;;;;;;;;;9.92;47.12;101424.69;4953735;28;100070;-68
2023/01/26 00:46:42;;;;;;;;;;;;;;;9.91;46.97;101425.75;4951910;28;128230;-65
2023/01/26 00:49:08;;;;;;;;;;;;;;;9.92;47.42;101422.00;4926210;28;130331;-66
2023/01/26 00:51:34;;;;;;;;;;;;;;;9.91;46.97;101420.38;4939531;28;128092;-65
2023/01/26 00:54:00;;;;;;;;;;;;;;;9.89;46.77;101417.91;4920353;28;118361;-65
2023/01/26 00:56:26;;;;;;;;;;;;;;;9.90;47.12;101414.16;4935464;28;98506;-65
2023/01/26 00:58:52;;;;;;;;;;;;;;;9.90;46.93;101406.06;4936754;28;98369;-66
2023/01/26 01:01:18;;;;;;;;;;;;;;;9.90;46.81;101407.94;4948493;28;126469;-66
2023/01/26 01:03:44;;;;;;;;;;;;;;;9.89;46.91;101411.69;4949378;28;98005;-66
2023/01/26 01:06:10;;;;;;;;;;;;;;;9.89;47.18;101409.81;4957728;28;98243;-66
2023/01/26 01:08:36;;;;;;;;;;;;;;;9.88;47.16;101408.19;4941395;28;128883;-66
2023/01/26 01:11:04;;;;;;;;;;;;;;;9.89;47.31;101407.13;4957586;28;98182;-66
2023/01/26 01:13:30;;;;;;;;;;;;;;;9.89;46.98;101415.22;4926792;28;97925;-66
2023/01/26 01:15:56;;;;;;;;;;;;;;;9.89;46.94;101409.81;4953033;28;114033;-66
2023/01/26 01:18:22;;;;;;;;;;;;;;;9.89;47.25;101403.63;4941816;28;127990;-66
2023/01/26 01:20:48;;;;;;;;;;;;;;;9.89;47.14;101407.13;4924911;28;127980;-66
2023/01/26 01:23:14;;;;;;;;;;;;;;;9.89;46.81;101403.63;4938084;28;118944;-66
2023/01/26 01:25:40;;;;;;;;;;;;;;;9.89;47.34;101409.00;4929230;28;128834;-66
2023/01/26 01:28:05;;;;;;;;;;;;;;;9.88;46.76;101410.06;4972860;27;128352;-66
2023/01/26 01:30:31;;;;;;;;;;;;;;;9.88;47.25;101404.69;4952564;28;128351;-66
2023/01/26 01:32:57;;;;;;;;;;;;;;;9.88;46.85;101402.81;4955459;28;116432;-66
2023/01/26 01:35:23;;;;;;;;;;;;;;;9.88;47.01;101407.38;4934005;28;128769;-67
2023/01/26 01:37:49;;;;;;;;;;;;;;;9.89;47.04;101403.63;4946648;28;127733;-67
2023/01/26 01:40:15;;;;;;;;;;;;;;;9.89;47.29;101409.00;4954759;28;127183;-66
2023/01/26 01:42:47;;;;;;;;;;;;;;;9.89;47.08;101406.31;4940384;28;117154;-66
2023/01/26 01:45:25;;;;;;;;;;;;;;;9.88;47.03;101399.31;4940285;28;99910;-66
2023/01/26 01:47:59;;;;;;;;;;;;;;;9.88;47.55;101404.69;4954607;28;99714;-66
2023/01/26 01:50:25;;;;;;;;;;;;;;;9.87;46.89;101403.88;4939793;28;126543;-66
2023/01/26 01:52:52;;;;;;;;;;;;;;;9.87;46.75;101390.41;4946203;28;98061;-66
2023/01/26 01:55:18;;;;;;;;;;;;;;;9.86;46.99;101387.94;4939878;28;99396;-66
2023/01/26 01:57:46;;;;;;;;;;;;;;;9.86;47.10;101391.44;4936723;28;127429;-66
2023/01/26 02:00:14;;;;;;;;;;;;;;;9.87;46.87;101389.59;4936753;28;116443;-66
2023/01/26 02:02:41;;;;;;;;;;;;;;;9.87;47.47;101384.22;4937728;28;97871;-66
2023/01/26 02:05:14;;;;;;;;;;;;;;;9.86;46.98;101379.88;4922728;28;117933;-66
2023/01/26 02:07:40;;;;;;;;;;;;;;;9.86;47.10;101382.56;4936196;28;117668;-66
2023/01/26 02:10:18;;;;;;;;;;;;;;;9.86;47.34;101375.28;4938321;28;116579;-66
2023/01/26 02:12:47;;;;;;;;;;;;;;;9.85;46.85;101370.97;4954320;28;98297;-68
2023/01/26 02:15:13;;;;;;;;;;;;;;;9.86;46.54;101369.09;4941791;28;119853;-66
2023/01/26 02:17:39;;;;;;;;;;;;;;;9.86;47.41;101367.22;4941079;28;98402;-66
2023/01/26 02:20:32;;;;;;;;;;;;;;;9.85;46.99;101362.88;4925611;28;98006;-66
2023/01/26 02:23:26;;;;;;;;;;;;;;;9.85;47.23;101357.50;4939983;28;98147;-66
2023/01/26 02:25:52;;;;;;;;;;;;;;;9.86;47.23;101359.13;4941402;28;98417;-66
2023/01/26 02:28:19;;;;;;;;;;;;;;;9.84;46.93;101348.59;4954935;28;98906;-66
2023/01/26 02:30:45;;;;;;;;;;;;;;;9.84;47.05;101347.81;4967408;27;98149;-66
2023/01/26 02:33:38;;;;;;;;;;;;;;;9.84;47.02;101334.34;4938912;28;120032;-69
2023/01/26 02:36:04;;;;;;;;;;;;;;;9.82;47.10;101331.91;4955367;28;98517;-66
2023/01/26 02:38:40;;;;;;;;;;;;;;;9.83;47.06;101324.63;4964436;27;98049;-66
2023/01/26 02:42:37;;;;;;;;;;;;;;;9.82;46.71;101315.75;4955604;28;97814;-66
2023/01/26 02:44:00;;;;;;;;;;;;;;;9.81;47.17;101322.16;4942479;28;98364;-66
2023/01/26 02:46:26;;;;;;;;;;;;;;;9.81;47.15;101321.34;4934019;28;118652;-66
2023/01/26 02:51:36;;;;;;;;;;;;;;;9.82;47.58;101322.97;4947202;28;97952;-66
2023/01/26 02:54:02;;;;;;;;;;;;;;;9.82;47.17;101317.59;4940802;28;117940;-66
2023/01/26 02:56:28;;;;;;;;;;;;;;;9.82;46.99;101312.19;4939742;28;126991;-66
2023/01/26 02:58:54;;;;;;;;;;;;;;;9.81;46.81;101310.56;4938973;28;128680;-66
2023/01/26 03:01:20;;;;;;;;;;;;;;;9.81;46.84;101307.88;4951910;28;128405;-66
2023/01/26 03:03:46;;;;;;;;;;;;;;;9.80;47.19;101311.63;4949739;28;117519;-66
2023/01/26 03:06:12;;;;;;;;;;;;;;;9.80;47.13;101307.06;4943333;28;105440;-66
2023/01/26 03:08:38;;;;;;;;;;;;;;;9.81;46.57;101310.56;4938224;28;119163;-66
2023/01/26 03:11:04;;;;;;;;;;;;;;;9.81;47.20;101314.09;4925179;28;97909;-66
2023/01/26 03:13:30;;;;;;;;;;;;;;;9.80;47.13;101311.63;4962202;28;99187;-66
2023/01/26 03:16:01;;;;;;;;;;;;;;;9.80;46.79;101314.34;4955095;28;115830;-66
2023/01/26 03:29:27;;;;;;;;;;;;;;;9.78;47.28;101309.16;4947724;28;97992;-67
2023/01/26 03:31:53;;;;;;;;;;;;;;;9.78;47.57;101301.09;4933654;28;98082;-66
2023/01/26 03:34:19;;;;;;;;;;;;;;;9.78;46.42;101297.59;4950026;28;98139;-66
2023/01/26 03:36:45;;;;;;;;;;;;;;;9.79;46.88;101291.16;4962568;27;99314;-67
2023/01/26 03:41:06;;;;;;;;;;;;;;;9.78;47.06;101298.41;4951824;28;127269;-66
2023/01/26 03:58:29;;;;;;;;;;;;;;;9.76;47.14;101289.75;4932726;28;98076;-66
2023/01/26 04:00:55;;;;;;;;;;;;;;;9.76;46.88;101283.56;4950784;28;98378;-66
2023/01/26 04:08:50;;;;;;;;;;;;;;;9.76;46.52;101275.50;4951994;28;98032;-67
2023/01/26 04:11:16;;;;;;;;;;;;;;;9.76;47.32;101268.22;4937529;28;128556;-66
2023/01/26 04:21:57;;;;;;;;;;;;;;;9.74;46.80;101251.47;4952416;28;98147;-66
2023/01/26 04:24:23;;;;;;;;;;;;;;;9.75;46.87;101246.94;4934213;28;122157;-66
2023/01/26 04:26:49;;;;;;;;;;;;;;;9.75;47.07;101249.63;4938811;28;117780;-66
2023/01/26 04:29:15;;;;;;;;;;;;;;;9.75;46.88;101249.63;4950189;28;128198;-67
2023/01/26 04:31:41;;;;;;;;;;;;;;;9.76;46.79;101253.94;4939753;28;129967;-66
2023/01/26 04:34:10;;;;;;;;;;;;;;;9.76;46.92;101252.06;4937496;28;99507;-66
2023/01/26 04:36:36;;;;;;;;;;;;;;;9.76;47.09;101238.59;4940239;28;98181;-66
2023/01/26 04:39:02;;;;;;;;;;;;;;;9.76;47.22;101245.88;4938460;28;124168;-67
2023/01/26 04:41:29;;;;;;;;;;;;;;;9.77;46.78;101239.41;4940337;28;122562;-66
2023/01/26 04:43:55;;;;;;;;;;;;;;;9.76;46.62;101249.38;4953776;28;112760;-66
2023/01/26 04:46:20;;;;;;;;;;;;;;;9.76;46.47;101249.38;4956368;28;97805;-66
2023/01/26 04:48:46;;;;;;;;;;;;;;;9.77;47.42;101247.50;4936757;28;127372;-67
2023/01/26 04:51:14;;;;;;;;;;;;;;;9.78;46.85;101247.25;4953030;28;129042;-66
2023/01/26 04:53:40;;;;;;;;;;;;;;;9.79;46.76;101253.47;4959868;28;98498;-66
2023/01/26 04:56:08;;;;;;;;;;;;;;;9.79;47.27;101258.84;4954545;28;98162;-66
2023/01/26 04:58:34;;;;;;;;;;;;;;;9.80;46.85;101257.78;4923918;28;98323;-66
2023/01/26 05:01:00;;;;;;;;;;;;;;;9.80;47.32;101260.47;4939969;28;127791;-67
2023/01/26 05:03:25;;;;;;;;;;;;;;;9.81;46.91;101262.09;4952164;28;128479;-66
2023/01/26 05:05:52;;;;;;;;;;;;;;;9.81;46.80;101260.22;4942620;28;118103;-66
2023/01/26 05:08:19;;;;;;;;;;;;;;;9.82;46.82;101261.03;4943219;28;98233;-66
2023/01/26 05:10:45;;;;;;;;;;;;;;;9.82;47.28;101253.81;4954759;28;98255;-66
2023/01/26 05:13:11;;;;;;;;;;;;;;;9.82;46.80;101251.13;4940132;28;105412;-67
2023/01/26 05:15:37;;;;;;;;;;;;;;;9.83;47.16;101260.81;4958276;28;111303;-66
2023/01/26 05:18:03;;;;;;;;;;;;;;;9.84;47.04;101257.06;4926552;28;98293;-66
2023/01/26 05:20:29;;;;;;;;;;;;;;;9.86;46.51;101262.19;4956402;28;126223;-66
2023/01/26 05:22:55;;;;;;;;;;;;;;;9.86;47.18;101248.72;4939326;28;98102;-66
2023/01/26 05:25:21;;;;;;;;;;;;;;;9.85;46.80;101241.72;4940728;28;118661;-67
2023/01/26 05:27:47;;;;;;;;;;;;;;;9.87;47.00;101252.25;4941373;28;97959;-67
2023/01/26 05:30:13;;;;;;;;;;;;;;;9.86;46.84;101251.41;4968652;27;98713;-66
2023/01/26 05:32:39;;;;;;;;;;;;;;;9.87;47.14;101246.88;4923595;28;125803;-66
2023/01/26 05:35:05;;;;;;;;;;;;;;;9.88;46.71;101256.56;4939606;28;117251;-66
2023/01/26 05:37:31;;;;;;;;;;;;;;;9.89;47.24;101252.81;4923590;28;106656;-66
2023/01/26 05:39:57;;;;;;;;;;;;;;;9.88;47.17;101243.91;4933914;28;99818;-66
2023/01/26 05:42:23;;;;;;;;;;;;;;;9.89;46.98;101242.03;4940263;28;127606;-66
2023/01/26 05:44:49;;;;;;;;;;;;;;;9.89;46.83;101250.13;4926430;28;98009;-66
2023/01/26 05:47:15;;;;;;;;;;;;;;;9.90;47.09;101238.28;4926983;28;127473;-66
2023/01/26 05:49:41;;;;;;;;;;;;;;;9.88;47.38;101251.19;4924647;28;122916;-67
2023/01/26 05:52:12;;;;;;;;;;;;;;;9.89;47.23;101250.94;4937623;28;99328;-67
2023/01/26 05:54:38;;;;;;;;;;;;;;;9.90;46.52;101244.47;4957382;28;98106;-67
2023/01/26 05:57:04;;;;;;;;;;;;;;;9.90;46.75;101247.16;4948664;28;127274;-67
2023/01/26 05:59:30;;;;;;;;;;;;;;;9.90;46.96;101243.66;4949911;28;127738;-67
2023/01/26 06:01:56;;;;;;;;;;;;;;;9.90;46.44;101249.88;4924430;28;127558;-67
2023/01/26 06:04:22;;;;;;;;;;;;;;;9.91;47.00;101250.72;4937671;28;109464;-67
2023/01/26 06:06:48;;;;;;;;;;;;;;;9.89;47.44;101237.47;4950015;28;113681;-67
2023/01/26 06:09:14;;;;;;;;;;;;;;;9.90;47.14;101247.16;4921747;28;128234;-66
2023/01/26 06:11:40;;;;;;;;;;;;;;;9.91;47.06;101250.72;4922030;28;119803;-66
2023/01/26 06:14:06;;;;;;;;;;;;;;;9.91;46.40;101246.13;4924569;28;117798;-66
2023/01/26 06:16:32;;;;;;;;;;;;;;;9.90;46.90;101241.78;4939832;28;100100;-66
2023/01/26 06:18:58;;;;;;;;;;;;;;;9.91;47.11;101248.81;4935445;28;128794;-66
2023/01/26 06:21:24;;;;;;;;;;;;;;;9.91;47.21;101251.53;4954818;28;127071;-66
2023/01/26 06:23:50;;;;;;;;;;;;;;;9.90;47.17;101249.06;4918313;28;117059;-66
2023/01/26 06:26:15;;;;;;;;;;;;;;;9.91;47.06;101250.72;4939808;28;127730;-66
2023/01/26 06:28:41;;;;;;;;;;;;;;;9.91;46.67;101259.59;4938296;28;99735;-66
2023/01/26 06:31:09;;;;;;;;;;;;;;;9.91;46.95;101258.78;4935224;28;127642;-66
2023/01/26 06:33:35;;;;;;;;;;;;;;;9.91;47.16;101253.41;4923800;28;98109;-67
2023/01/26 06:36:09;;;;;;;;;;;;;;;9.90;46.88;101249.06;4941469;28;114717;-67
2023/01/26 06:38:35;;;;;;;;;;;;;;;9.90;47.29;101255.25;4954060;28;98436;-66
2023/01/26 06:41:01;;;;;;;;;;;;;;;9.90;46.79;101255.25;4964334;27;98281;-66
2023/01/26 06:43:29;;;;;;;;;;;;;;;9.90;46.88;101263.34;4934268;28;98199;-66
2023/01/26 06:45:56;;;;;;;;;;;;;;;9.90;47.29;101252.56;4948768;28;98714;-66
2023/01/26 06:48:23;;;;;;;;;;;;;;;9.91;47.27;101267.69;4920438;28;99832;-66
2023/01/26 06:50:50;;;;;;;;;;;;;;;9.90;47.14;101268.72;4933102;28;111385;-66
2023/01/26 06:53:29;;;;;;;;;;;;;;;9.90;46.72;101254.44;4932475;28;98347;-67
2023/01/26 06:55:55;;;;;;;;;;;;;;;9.90;46.81;101252.56;4946134;28;102582;-66
2023/01/26 06:58:21;;;;;;;;;;;;;;;9.91;46.70;101251.53;4947777;28;118445;-66
2023/01/26 07:00:47;;;;;;;;;;;;;;;9.89;46.78;101250.13;4948263;28;127683;-67
2023/01/26 07:03:13;;;;;;;;;;;;;;;9.91;46.93;101253.41;4948622;28;98170;-66
2023/01/26 07:05:39;;;;;;;;;;;;;;;9.90;46.87;101251.75;4915840;28;129199;-66
2023/01/26 07:08:07;;;;;;;;;;;;;;;9.90;46.73;101252.56;4932422;28;127044;-67
2023/01/26 07:10:35;;;;;;;;;;;;;;;9.92;47.05;101249.63;4920022;28;98183;-66
2023/01/26 07:13:03;;;;;;;;;;;;;;;9.92;46.76;101246.94;4931197;28;113790;-67
2023/01/26 07:15:29;;;;;;;;;;;;;;;9.93;46.61;101252.06;4947550;28;106601;-66
2023/01/26 07:17:56;;;;;;;;;;;;;;;9.94;46.88;101252.88;4935609;28;127778;-67
2023/01/26 07:20:22;;;;;;;;;;;;;;;9.94;47.12;101255.59;4933529;28;98129;-67
2023/01/26 07:22:48;;;;;;;;;;;;;;;9.95;47.17;101249.16;4950456;28;98371;-67
2023/01/26 07:25:15;;;;;;;;;;;;;;;9.96;47.19;101242.69;4931582;28;98365;-67
2023/01/26 07:27:41;;;;;;;;;;;;;;;9.96;46.72;101254.28;4959568;27;111775;-67
2023/01/26 07:30:07;;;;;;;;;;;;;;;9.97;46.63;101257.78;4920878;28;127102;-67
2023/01/26 07:32:33;;;;;;;;;;;;;;;9.99;46.53;101256.50;4936972;28;109607;-67
2023/01/26 07:34:59;;;;;;;;;;;;;;;9.99;46.76;101247.59;4948213;28;108934;-67
2023/01/26 07:37:28;;;;;;;;;;;;;;;10.00;47.30;101244.66;4950010;28;127891;-67
2023/01/26 07:39:54;;;;;;;;;;;;;;;10.00;47.40;101244.66;4947914;28;128242;-66
2023/01/26 07:42:20;;;;;;;;;;;;;;;10.00;46.75;101239.28;4945995;28;117207;-66
2023/01/26 07:44:46;;;;;;;;;;;;;;;10.01;46.95;101246.28;4927607;28;122763;-67
2023/01/26 07:47:13;;;;;;;;;;;;;;;10.01;46.96;101238.19;4926913;28;127875;-66
2023/01/26 07:49:39;;;;;;;;;;;;;;;10.02;46.48;101239.00;4934511;28;98597;-66
2023/01/26 07:52:05;;;;;;;;;;;;;;;10.02;46.91;101241.72;4932099;28;98262;-66
2023/01/26 07:54:31;;;;;;;;;;;;;;;10.03;46.86;101243.38;4946675;28;128261;-67
2023/01/26 07:56:57;;;;;;;;;;;;;;;10.03;46.51;101241.47;4913273;28;127363;-66
2023/01/26 07:59:23;;;;;;;;;;;;;;;10.04;46.54;101243.09;4918861;28;128826;-66
2023/01/26 08:01:49;;;;;;;;;;;;;;;10.04;46.50;101242.28;4933574;28;99620;-66
2023/01/26 08:04:15;;;;;;;;;;;;;;;10.05;46.78;101242.03;4947838;28;98589;-65
2023/01/26 08:06:41;;;;;;;;;;;;;;;10.06;46.53;101238.31;4939542;28;98738;-66
2023/01/26 08:09:07;;;;;;;;;;;;;;;10.08;47.18;101248.81;4922066;28;127683;-66
2023/01/26 08:11:33;;;;;;;;;;;;;;;10.08;46.38;101246.94;4950554;28;116299;-67
2023/01/26 08:13:59;;;;;;;;;;;;;;;10.08;47.29;101249.63;4952486;28;104002;-66
2023/01/26 08:16:25;;;;;;;;;;;;;;;10.09;46.79;101251.25;4936072;28;128329;-66
2023/01/26 08:18:51;;;;;;;;;;;;;;;10.11;47.01;101248.34;4929693;28;127575;-66
2023/01/26 08:21:17;;;;;;;;;;;;;;;10.12;46.81;101249.97;4944207;28;98086;-66
2023/01/26 08:23:49;;;;;;;;;;;;;;;10.12;46.73;101247.28;4952266;28;99003;-66
2023/01/26 08:26:16;;;;;;;;;;;;;;;10.14;46.50;101249.72;4931149;28;107226;-66
2023/01/26 08:28:42;;;;;;;;;;;;;;;10.13;47.06;101250.78;4939933;28;98398;-66
2023/01/26 08:31:18;;;;;;;;;;;;;;;10.12;46.94;101244.56;4919378;28;100404;-65
2023/01/26 08:33:44;;;;;;;;;;;;;;;10.10;46.82;101235.94;4966285;27;98347;-65
2023/01/26 08:36:11;;;;;;;;;;;;;;;10.09;46.71;101236.97;4946683;28;122668;-66
2023/01/26 08:38:37;;;;;;;;;;;;;;;10.09;46.71;101237.78;4953243;28;121077;-66
2023/01/26 08:41:03;;;;;;;;;;;;;;;10.11;46.42;101247.53;4932441;28;98096;-66
2023/01/26 08:43:29;;;;;;;;;;;;;;;10.13;46.79;101251.59;4919397;28;123138;-65
2023/01/26 08:45:55;;;;;;;;;;;;;;;10.14;46.98;101239.78;4939029;28;98857;-66
2023/01/26 08:48:21;;;;;;;;;;;;;;;10.16;47.04;101240.34;4922465;28;97973;-65
2023/01/26 08:50:47;;;;;;;;;;;;;;;10.17;46.47;101244.66;4934658;28;99308;-66
2023/01/26 08:53:13;;;;;;;;;;;;;;;10.17;46.39;101246.53;4936256;28;115517;-66
2023/01/26 08:55:39;;;;;;;;;;;;;;;10.19;46.30;101247.94;4936637;28;127789;-65
2023/01/26 08:58:05;;;;;;;;;;;;;;;10.20;47.00;101252.25;4944060;28;99614;-66
2023/01/26 09:00:32;;;;;;;;;;;;;;;10.21;46.89;101258.44;4921599;28;115957;-66
2023/01/26 09:03:01;;;;;;;;;;;;;;;10.22;46.34;101262.81;4935849;28;98272;-67
2023/01/26 09:05:27;;;;;;;;;;;;;;;10.23;46.99;101253.66;4940057;28;98024;-66
2023/01/26 09:07:53;;;;;;;;;;;;;;;10.24;46.36;101255.28;4938720;28;107750;-67
2023/01/26 09:10:19;;;;;;;;;;;;;;;10.24;46.32;101258.78;4949176;28;117271;-65
2023/01/26 09:12:45;;;;;;;;;;;;;;;10.25;46.59;101263.13;4930588;28;128987;-65
2023/01/26 09:15:11;;;;;;;;;;;;;;;10.27;46.56;101260.22;4933924;28;127999;-66
2023/01/26 09:17:37;;;;;;;;;;;;;;;10.27;46.88;101261.03;4946165;28;126951;-66
2023/01/26 09:20:04;;;;;;;;;;;;;;;10.28;46.56;101259.94;4931946;28;99255;-66
2023/01/26 09:22:30;;;;;;;;;;;;;;;10.29;46.86;101258.06;4945708;28;117528;-66
2023/01/26 09:24:56;;;;;;;;;;;;;;;10.29;46.90;101253.50;4916641;28;99739;-67
2023/01/26 09:27:22;;;;;;;;;;;;;;;10.29;46.35;101258.88;4939301;28;98046;-67
2023/01/26 09:29:48;;;;;;;;;;;;;;;10.30;46.97;101254.34;4948725;28;110838;-66
2023/01/26 09:32:14;;;;;;;;;;;;;;;10.30;46.50;101257.03;4949680;28;113660;-66
2023/01/26 09:34:40;;;;;;;;;;;;;;;10.32;46.91;101261.09;4935795;28;129635;-67
2023/01/26 09:37:07;;;;;;;;;;;;;;;10.33;46.74;101267.28;4946074;28;127641;-66
2023/01/26 09:39:33;;;;;;;;;;;;;;;10.31;46.96;101259.47;4948801;28;98435;-67
2023/01/26 09:42:04;;;;;;;;;;;;;;;10.31;46.60;101269.44;4929645;28;128545;-66
2023/01/26 09:44:32;;;;;;;;;;;;;;;10.34;46.56;101262.75;4947033;28;98807;-67
2023/01/26 09:47:25;;;;;;;;;;;;;;;10.33;46.31;101264.59;4933433;28;98277;-67
2023/01/26 09:50:10;;;;;;;;;;;;;;;10.35;46.31;101259.78;4935321;28;99574;-67
2023/01/26 09:52:48;;;;;;;;;;;;;;;10.38;46.69;101270.09;4913503;28;122446;-66
2023/01/26 09:55:16;;;;;;;;;;;;;;;10.38;46.73;101266.56;4952299;28;98388;-67
2023/01/26 09:57:47;;;;;;;;;;;;;;;10.40;46.32;101269.81;4920238;28;116205;-66
2023/01/26 10:00:14;;;;;;;;;;;;;;;10.41;46.31;101261.47;4922691;28;114916;-65
2023/01/26 10:03:04;;;;;;;;;;;;;;;10.44;46.83;101263.69;4949971;28;98774;-65
2023/01/26 10:05:57;;;;;;;;;;;;;;;10.49;46.75;101257.56;4953966;28;99514;-66
2023/01/26 10:08:25;;;;;;;;;;;;;;;10.49;46.19;101258.41;4946212;28;98374;-66
2023/01/26 10:11:20;;;;;;;;;;;;;;;10.53;46.45;101261.38;4937090;28;97901;-66
2023/01/26 10:13:50;;;;;;;;;;;;;;;10.57;46.16;101262.53;4949611;28;99021;-65
2023/01/26 10:16:16;;;;;;;;;;;;;;;10.58;46.61;101256.09;4955716;28;98661;-66
2023/01/26 10:18:56;;;;;;;;;;;;;;;10.59;46.05;101252.31;4949784;28;99149;-66
2023/01/26 10:21:22;;;;;;;;;;;;;;;10.63;46.30;101253.47;4965710;27;98080;-66
2023/01/26 10:23:48;;;;;;;;;;;;;;;10.62;46.62;101254.53;4947395;28;122608;-66
2023/01/26 10:26:17;;;;;;;;;;;;;;;10.60;46.73;101247.75;4932378;28;98069;-66
2023/01/26 10:28:44;;;;;;;;;;;;;;;10.58;46.34;101253.38;4931264;28;98262;-66
2023/01/26 10:31:16;;;;;;;;;;;;;;;10.57;46.68;101255.28;4949005;28;98111;-65
2023/01/26 10:33:49;;;;;;;;;;;;;;;10.56;46.42;101250.91;4934178;28;112908;-65
2023/01/26 10:36:15;;;;;;;;;;;;;;;10.54;46.32;101249.56;4936293;28;98668;-66
2023/01/26 10:38:42;;;;;;;;;;;;;;;10.53;46.50;101245.22;4931799;28;128197;-67
2023/01/26 10:41:17;;;;;;;;;;;;;;;10.48;46.93;101245.97;4926540;28;98054;-66
2023/01/26 10:43:54;;;;;;;;;;;;;;;10.46;46.61;101248.09;4944359;28;98142;-66
2023/01/26 10:46:40;;;;;;;;;;;;;;;10.43;47.00;101242.38;4936454;28;99269;-67
2023/01/26 10:49:08;;;;;;;;;;;;;;;10.39;47.11;101233.16;4950070;28;98748;-66
2023/01/26 10:51:38;;;;;;;;;;;;;;;10.40;46.46;101241.00;4946044;28;98338;-66
2023/01/26 10:54:21;;;;;;;;;;;;;;;10.37;47.06;101235.28;4950958;28;126975;-66
2023/01/26 10:56:51;;;;;;;;;;;;;;;10.35;47.08;101229.34;4949444;28;98161;-68
2023/01/26 10:59:24;;;;;;;;;;;;;;;10.35;46.64;101232.03;4947866;28;109681;-66
2023/01/26 11:02:14;;;;;;;;;;;;;;;10.34;46.96;101233.91;4933486;28;98237;-66
2023/01/26 11:04:40;;;;;;;;;;;;;;;10.33;46.74;101226.88;4948093;28;99008;-66
2023/01/26 11:07:24;;;;;;;;;;;;;;;10.32;46.81;101217.97;4931170;28;100384;-67
2023/01/26 11:09:51;;;;;;;;;;;;;;;10.32;46.52;101220.66;4936418;28;99586;-66
2023/01/26 11:12:18;;;;;;;;;;;;;;;10.33;46.37;101218.78;4961234;27;98080;-67
2023/01/26 11:14:57;;;;;;;;;;;;;;;10.34;46.64;101223.13;4950559;28;98396;-67
2023/01/26 11:17:24;;;;;;;;;;;;;;;10.32;46.75;101217.16;4964529;27;116572;-67
2023/01/26 11:20:08;;;;;;;;;;;;;;;10.29;46.70;101214.94;4930887;28;126229;-66
2023/01/26 11:22:59;;;;;;;;;;;;;;;10.29;46.62;101201.47;4961348;27;99375;-67
2023/01/26 11:25:27;;;;;;;;;;;;;;;10.28;46.77;101206.06;4959925;27;98495;-67
2023/01/26 11:28:15;;;;;;;;;;;;;;;10.28;46.48;101197.97;4933690;28;99253;-67
2023/01/26 11:30:55;;;;;;;;;;;;;;;10.26;46.64;101207.38;4942025;28;98682;-67
2023/01/26 11:33:57;;;;;;;;;;;;;;;10.25;46.63;101203.84;4947455;28;107832;-67
2023/01/26 11:36:29;;;;;;;;;;;;;;;10.24;46.57;101201.38;4946090;28;118947;-66
2023/01/26 11:39:13;;;;;;;;;;;;;;;10.23;46.67;101199.75;4952286;28;98134;-66
2023/01/26 11:42:14;;;;;;;;;;;;;;;10.23;46.71;101199.75;4953456;28;97996;-67
2023/01/26 11:45:17;;;;;;;;;;;;;;;10.21;47.09;101191.91;4956036;28;98294;-66
2023/01/26 11:47:58;;;;;;;;;;;;;;;10.23;46.97;101186.28;4949937;28;98392;-67
2023/01/26 11:50:44;;;;;;;;;;;;;;;10.29;46.74;101179.91;4968317;27;99697;-68
2023/01/26 11:53:46;;;;;;;;;;;;;;;10.36;46.77;101179.75;4968155;27;98673;-66
2023/01/26 11:56:15;;;;;;;;;;;;;;;10.44;46.68;101179.31;4917976;28;98242;-66
2023/01/26 11:59:01;;;;;;;;;;;;;;;10.48;46.38;101178.56;4935943;28;98424;-66
2023/01/26 12:01:28;;;;;;;;;;;;;;;10.53;46.73;101188.59;4972274;27;98403;-68
2023/01/26 12:03:54;;;;;;;;;;;;;;;10.58;46.67;101180.59;4944584;28;98860;-67
2023/01/26 12:06:28;;;;;;;;;;;;;;;10.61;46.80;101181.97;4951632;28;102391;-67
2023/01/26 12:09:01;;;;;;;;;;;;;;;10.66;46.63;101173.97;4969585;27;98646;-67
2023/01/26 12:11:32;;;;;;;;;;;;;;;10.69;46.85;101168.88;4957148;28;98465;-68
2023/01/26 12:14:15;;;;;;;;;;;;;;;10.74;46.81;101173.53;4955709;28;99411;-66
2023/01/26 12:16:44;;;;;;;;;;;;;;;10.75;46.91;101170.56;4926076;28;98328;-66
2023/01/26 12:19:40;;;;;;;;;;;;;;;10.77;46.61;101165.75;4948774;28;98412;-67
2023/01/26 12:22:33;;;;;;;;;;;;;;;10.78;46.65;101161.97;4950748;28;99162;-67
2023/01/26 12:25:17;;;;;;;;;;;;;;;10.78;46.78;101143.09;4954695;28;98307;-67
2023/01/26 12:27:46;;;;;;;;;;;;;;;10.79;46.87;101146.59;4955898;28;97948;-66
2023/01/26 12:30:27;;;;;;;;;;;;;;;10.78;46.95;101145.78;4949266;28;100413;-66
2023/01/26 12:32:53;;;;;;;;;;;;;;;10.78;46.86;101142.28;4951184;28;98850;-67
2023/01/26 12:35:27;;;;;;;;;;;;;;;10.75;47.09;101135.50;4935752;28;126424;-67
2023/01/26 12:38:06;;;;;;;;;;;;;;;10.74;46.96;101130.38;4939012;28;113407;-66
2023/01/26 12:40:39;;;;;;;;;;;;;;;10.72;46.66;101138.69;4936086;28;118556;-66
2023/01/26 12:43:31;;;;;;;;;;;;;;;10.69;46.62;101125.75;4951502;28;125281;-67
2023/01/26 12:45:57;;;;;;;;;;;;;;;10.67;46.58;101114.38;4951366;28;98343;-68
2023/01/26 12:48:45;;;;;;;;;;;;;;;10.66;46.60;101120.03;4934886;28;116351;-66
2023/01/26 12:51:17;;;;;;;;;;;;;;;10.63;46.82;101110.56;4931571;28;98008;-66
2023/01/26 12:53:59;;;;;;;;;;;;;;;10.62;47.20;101121.59;4949536;27;98677;-66
2023/01/26 12:56:31;;;;;;;;;;;;;;;10.60;47.27;101119.13;4950039;28;116666;-65
2023/01/26 12:58:58;;;;;;;;;;;;;;;10.59;46.80;101119.41;4936008;28;99329;-67
2023/01/26 13:01:25;;;;;;;;;;;;;;;10.56;46.95;101116.13;4950152;28;98628;-67
2023/01/26 13:03:55;;;;;;;;;;;;;;;10.55;46.95;101121.78;4961108;27;98520;-66
2023/01/26 13:06:23;;;;;;;;;;;;;;;10.53;46.61;101119.34;4921640;28;98412;-65
2023/01/26 13:08:52;;;;;;;;;;;;;;;10.52;47.07;101119.59;4932982;28;99622;-66
2023/01/26 13:11:43;;;;;;;;;;;;;;;10.52;46.99;101128.47;4938373;28;100740;-67
2023/01/26 13:14:27;;;;;;;;;;;;;;;10.52;47.16;101125.78;4948002;28;98842;-66
2023/01/26 13:16:53;;;;;;;;;;;;;;;10.51;46.92;101123.34;4946216;28;98261;-66
2023/01/26 13:19:40;;;;;;;;;;;;;;;10.50;46.78;101127.94;4933488;28;113172;-66
2023/01/26 13:22:22;;;;;;;;;;;;;;;10.50;46.72;101135.22;4949842;28;98651;-66
2023/01/26 13:24:48;;;;;;;;;;;;;;;10.50;46.68;101135.22;4948893;28;99243;-66
2023/01/26 13:27:31;;;;;;;;;;;;;;;10.49;46.83;101131.69;4952006;28;101364;-66
2023/01/26 13:29:57;;;;;;;;;;;;;;;10.50;46.69;101140.59;4947609;28;98110;-67
2023/01/26 13:32:23;;;;;;;;;;;;;;;10.50;47.14;101148.69;4937033;28;98398;-66
2023/01/26 13:34:56;;;;;;;;;;;;;;;10.49;46.77;101136.25;4953995;28;99536;-67
2023/01/26 13:37:31;;;;;;;;;;;;;;;10.49;46.77;101134.41;4966632;27;98213;-66
2023/01/26 13:39:59;;;;;;;;;;;;;;;10.48;46.56;101130.06;4934113;28;98191;-67